Time;durP1;ratioP1;P1;durP2;ratioP2;P2;SDS_P1;SDS_P2;PMS_P1;PMS_P2;Temp;Humidity;BMP_temperature;BMP_pressure;BME280_temperature;BME280_humidity;BME280_pressure;Samples;Min_cycle;Max_cycle;Signal;HPM_P1;HPM_P2
2021/07/15 00:01:38;;;;;;;6.17;0.90;;;20.50;99.90;;;;;;1923742;73;21112;-76
2021/07/15 00:04:05;;;;;;;9.93;0.80;;;20.40;99.90;;;;;;1931124;72;21093;-75
2021/07/15 00:06:33;;;;;;;10.23;1.00;;;20.50;99.90;;;;;;1920127;73;21636;-75
2021/07/15 00:09:01;;;;;;;3.17;0.68;;;20.50;99.90;;;;;;1886051;74;21634;-75
2021/07/15 00:11:29;;;;;;;12.60;1.02;;;20.60;99.90;;;;;;1878718;74;21745;-75
2021/07/15 00:13:57;;;;;;;4.67;0.82;;;20.50;99.90;;;;;;1883926;74;21170;-75
2021/07/15 00:16:25;;;;;;;5.12;0.80;;;20.70;99.90;;;;;;1915863;73;21614;-76
2021/07/15 00:18:54;;;;;;;10.00;0.80;;;20.70;99.90;;;;;;1923129;73;21055;-76
2021/07/15 00:21:24;;;;;;;4.78;0.62;;;20.60;99.90;;;;;;1923153;73;21026;-75
2021/07/15 00:23:52;;;;;;;6.60;0.82;;;20.70;99.90;;;;;;1948467;73;21707;-76
2021/07/15 00:26:22;;;;;;;7.60;0.80;;;20.70;99.90;;;;;;1919595;73;21119;-75
2021/07/15 00:28:50;;;;;;;4.33;0.90;;;20.60;99.90;;;;;;1937515;73;21009;-76
2021/07/15 00:31:18;;;;;;;4.12;0.80;;;20.50;99.90;;;;;;1894992;73;21285;-77
2021/07/15 00:33:46;;;;;;;7.15;0.72;;;20.50;99.90;;;;;;1919932;73;21041;-76
2021/07/15 00:36:15;;;;;;;8.50;0.80;;;20.50;99.90;;;;;;1927345;72;21124;-76
2021/07/15 00:38:42;;;;;;;6.80;0.80;;;20.40;99.90;;;;;;1885754;74;21086;-76
2021/07/15 00:41:10;;;;;;;5.50;0.72;;;20.50;99.90;;;;;;1928168;73;21167;-76
2021/07/15 00:43:38;;;;;;;11.53;0.90;;;20.50;99.90;;;;;;1923233;73;21097;-77
2021/07/15 00:46:05;;;;;;;5.17;0.80;;;20.40;99.90;;;;;;1917103;73;21106;-76
2021/07/15 00:48:33;;;;;;;6.87;0.80;;;20.40;99.90;;;;;;1916829;73;21574;-76
2021/07/15 00:51:00;;;;;;;7.80;0.70;;;20.40;99.90;;;;;;1923970;73;21687;-76
2021/07/15 00:53:28;;;;;;;6.62;0.90;;;20.50;99.90;;;;;;1921254;73;21069;-76
2021/07/15 00:55:56;;;;;;;6.40;0.95;;;20.40;99.90;;;;;;1923189;73;21070;-76
2021/07/15 00:58:24;;;;;;;5.67;0.70;;;20.70;99.90;;;;;;1927136;73;21175;-76
2021/07/15 01:00:52;;;;;;;13.40;0.80;;;20.50;99.90;;;;;;1914724;73;21125;-76
2021/07/15 01:03:21;;;;;;;4.62;0.70;;;20.40;99.90;;;;;;1882219;74;21141;-77
2021/07/15 01:05:51;;;;;;;5.22;0.75;;;20.40;99.90;;;;;;1937870;73;21262;-76
2021/07/15 01:08:19;;;;;;;8.35;0.78;;;20.20;99.90;;;;;;1885603;74;21191;-77
2021/07/15 01:10:55;;;;;;;4.35;0.80;;;20.10;99.90;;;;;;1886656;74;21235;-77
2021/07/15 01:13:42;;;;;;;1.50;0.50;;;20.00;99.90;;;;;;1882763;74;21089;-77
2021/07/15 01:16:31;;;;;;;3.22;0.70;;;19.90;99.90;;;;;;1924373;74;21109;-76
2021/07/15 01:19:07;;;;;;;3.05;0.60;;;19.90;99.90;;;;;;1891023;74;21628;-75
2021/07/15 01:21:47;;;;;;;7.53;0.78;;;19.90;99.90;;;;;;1879238;74;21808;-76
2021/07/15 01:24:41;;;;;;;9.38;0.78;;;19.80;99.90;;;;;;1869102;76;21129;-76
2021/07/15 01:27:29;;;;;;;1.72;0.65;;;19.70;99.90;;;;;;1931574;73;21205;-76
2021/07/15 01:30:06;;;;;;;5.72;0.68;;;19.70;99.90;;;;;;1888813;76;21599;-78
2021/07/15 01:32:54;;;;;;;2.62;0.70;;;19.70;99.90;;;;;;1940014;73;22092;-76
2021/07/15 01:35:25;;;;;;;6.30;0.85;;;19.70;99.90;;;;;;1872706;75;22174;-77
2021/07/15 01:37:55;;;;;;;6.87;1.17;;;19.70;99.90;;;;;;1885519;74;21175;-77
2021/07/15 01:40:28;;;;;;;4.25;0.65;;;19.70;99.90;;;;;;1891772;74;21113;-76
2021/07/15 01:42:59;;;;;;;4.97;0.72;;;19.90;99.90;;;;;;1882840;74;21186;-77
2021/07/15 01:45:28;;;;;;;7.70;0.70;;;19.90;99.90;;;;;;1885681;76;21227;-77
2021/07/15 01:47:56;;;;;;;9.63;1.35;;;19.80;99.90;;;;;;1894331;74;21187;-76
2021/07/15 01:50:23;;;;;;;2.67;0.90;;;19.90;99.90;;;;;;1919636;73;21086;-76
2021/07/15 01:52:52;;;;;;;7.97;1.02;;;19.90;99.90;;;;;;1922673;73;21104;-76
2021/07/15 01:55:21;;;;;;;6.45;0.80;;;19.80;99.90;;;;;;1928200;73;21543;-76
2021/07/15 01:57:49;;;;;;;10.30;1.00;;;19.60;99.90;;;;;;1928057;73;21105;-76
2021/07/15 02:00:17;;;;;;;8.50;0.88;;;19.60;99.90;;;;;;1922648;73;21683;-76
2021/07/15 02:02:46;;;;;;;7.10;0.88;;;19.60;99.90;;;;;;1874295;74;21183;-76
2021/07/15 02:05:14;;;;;;;6.33;0.88;;;19.60;99.90;;;;;;1887302;76;21197;-76
2021/07/15 02:07:43;;;;;;;8.28;0.82;;;19.60;99.90;;;;;;1890124;74;21022;-76
2021/07/15 02:10:14;;;;;;;6.92;0.93;;;19.60;99.90;;;;;;1887763;76;21134;-76
2021/07/15 02:12:41;;;;;;;4.75;0.90;;;19.70;99.90;;;;;;1935127;73;21886;-76
2021/07/15 02:15:09;;;;;;;5.58;0.82;;;19.70;99.90;;;;;;1889982;74;21103;-76
2021/07/15 02:17:41;;;;;;;4.58;1.02;;;19.70;99.90;;;;;;1906802;75;21540;-77
2021/07/15 02:20:12;;;;;;;8.45;1.00;;;19.70;99.90;;;;;;1889593;75;21231;-77
2021/07/15 02:22:40;;;;;;;8.13;1.27;;;19.60;99.90;;;;;;1892212;74;22428;-77
2021/07/15 02:25:09;;;;;;;6.28;0.85;;;19.60;99.90;;;;;;1957823;71;21117;-75
2021/07/15 02:27:40;;;;;;;6.65;1.22;;;19.70;99.90;;;;;;1920736;73;21932;-75
2021/07/15 02:30:10;;;;;;;7.20;1.45;;;19.80;99.90;;;;;;1909863;73;21380;-75
2021/07/15 02:32:39;;;;;;;8.85;1.72;;;19.70;99.90;;;;;;1939205;72;21249;-75
2021/07/15 02:35:10;;;;;;;8.40;1.50;;;19.50;99.90;;;;;;1914325;73;22067;-75
2021/07/15 02:37:39;;;;;;;6.05;1.40;;;19.60;99.90;;;;;;1925666;73;21741;-74
2021/07/15 02:40:10;;;;;;;8.65;1.67;;;19.70;99.90;;;;;;1917130;73;21626;-75
2021/07/15 02:42:39;;;;;;;6.53;1.47;;;19.70;99.90;;;;;;1926556;73;21226;-75
2021/07/15 02:45:11;;;;;;;9.60;1.90;;;19.60;99.90;;;;;;1892504;74;21559;-75
2021/07/15 02:47:44;;;;;;;5.92;1.60;;;19.40;99.90;;;;;;1925874;73;21042;-75
2021/07/15 02:50:13;;;;;;;10.88;1.90;;;19.30;99.90;;;;;;1925078;73;21195;-75
2021/07/15 02:52:42;;;;;;;16.82;2.40;;;19.40;99.90;;;;;;1891968;74;21085;-75
2021/07/15 02:55:11;;;;;;;19.70;2.12;;;19.60;99.90;;;;;;1934164;73;21615;-75
2021/07/15 02:57:57;;;;;;;11.00;1.82;;;19.60;99.90;;;;;;1868856;74;21164;-76
2021/07/15 03:00:27;;;;;;;11.10;1.92;;;19.70;99.90;;;;;;1916961;73;21129;-75
2021/07/15 03:03:26;;;;;;;7.00;1.92;;;19.70;99.90;;;;;;1923373;74;21076;-76
2021/07/15 03:06:01;;;;;;;11.70;2.30;;;19.70;99.90;;;;;;1932338;73;21133;-76
2021/07/15 03:08:34;;;;;;;8.95;2.27;;;19.70;99.90;;;;;;1919761;73;21065;-76
2021/07/15 03:11:04;;;;;;;16.00;2.22;;;19.60;99.90;;;;;;1921972;73;21214;-76
2021/07/15 03:13:34;;;;;;;22.40;2.60;;;19.50;99.90;;;;;;1937793;73;21105;-76
2021/07/15 03:16:03;;;;;;;15.35;2.85;;;19.50;99.90;;;;;;1924679;73;21093;-75
2021/07/15 03:18:32;;;;;;;15.83;2.35;;;19.50;99.90;;;;;;1923576;73;21089;-76
2021/07/15 03:21:04;;;;;;;12.35;2.30;;;19.60;99.90;;;;;;1929958;73;21078;-76
2021/07/15 03:23:34;;;;;;;18.30;2.67;;;19.60;99.90;;;;;;1925409;74;21097;-76
2021/07/15 03:26:03;;;;;;;9.75;2.33;;;19.60;99.90;;;;;;1932802;72;21104;-76
2021/07/15 03:28:33;;;;;;;13.88;2.70;;;19.70;99.90;;;;;;1921477;73;21559;-76
2021/07/15 03:31:09;;;;;;;11.22;2.27;;;19.70;99.90;;;;;;1923450;73;21794;-76
2021/07/15 03:33:39;;;;;;;19.05;2.90;;;19.80;99.90;;;;;;1894303;76;21143;-76
2021/07/15 03:36:09;;;;;;;10.28;2.52;;;19.90;99.90;;;;;;1921071;73;21085;-76
2021/07/15 03:38:39;;;;;;;20.97;2.90;;;19.80;99.90;;;;;;1940387;73;21164;-76
2021/07/15 03:41:08;;;;;;;14.25;2.10;;;19.70;99.90;;;;;;1935955;73;21102;-76
2021/07/15 03:43:37;;;;;;;15.90;2.42;;;19.60;99.90;;;;;;1871296;76;21962;-76
2021/07/15 03:46:05;;;;;;;15.25;2.08;;;19.60;99.90;;;;;;1887230;75;21097;-76
2021/07/15 03:48:34;;;;;;;12.20;1.90;;;19.30;99.90;;;;;;1900270;73;21093;-76
2021/07/15 03:51:04;;;;;;;18.57;2.30;;;19.20;99.90;;;;;;1930086;74;21214;-76
2021/07/15 03:53:33;;;;;;;13.10;2.30;;;19.10;99.90;;;;;;1901095;74;21080;-76
2021/07/15 03:56:03;;;;;;;18.17;2.80;;;19.00;99.90;;;;;;1919320;73;21199;-76
2021/07/15 03:58:32;;;;;;;12.37;2.15;;;19.10;99.90;;;;;;1919767;73;21070;-76
2021/07/15 04:01:05;;;;;;;9.43;1.98;;;19.00;99.90;;;;;;1925087;74;21191;-76
2021/07/15 04:03:34;;;;;;;13.28;2.52;;;19.00;99.90;;;;;;1922784;73;21186;-76
2021/07/15 04:06:03;;;;;;;17.70;2.42;;;19.10;99.90;;;;;;1920816;73;21159;-76
2021/07/15 04:08:33;;;;;;;9.98;2.15;;;19.20;99.90;;;;;;1920253;73;21171;-77
2021/07/15 04:11:02;;;;;;;11.20;1.77;;;19.20;99.90;;;;;;1918214;73;21136;-76
2021/07/15 04:13:30;;;;;;;8.68;1.90;;;19.20;99.90;;;;;;1930266;73;21123;-76
2021/07/15 04:16:16;;;;;;;10.08;2.40;;;19.20;99.90;;;;;;1878810;74;21486;-76
2021/07/15 04:18:46;;;;;;;11.50;2.80;;;19.30;99.90;;;;;;1915520;73;21157;-76
2021/07/15 04:21:14;;;;;;;12.20;2.42;;;19.30;99.90;;;;;;1924707;73;21078;-76
2021/07/15 04:23:43;;;;;;;14.07;2.47;;;19.40;99.90;;;;;;1899142;74;21111;-76
2021/07/15 04:26:12;;;;;;;12.43;2.50;;;19.40;99.90;;;;;;1917026;73;21081;-76
2021/07/15 04:28:40;;;;;;;15.00;2.10;;;19.30;99.90;;;;;;1915713;73;21094;-76
2021/07/15 04:31:19;;;;;;;11.90;2.62;;;19.40;99.90;;;;;;1923699;73;21015;-76
2021/07/15 04:33:48;;;;;;;15.43;2.20;;;19.40;99.90;;;;;;1917429;73;21073;-76
2021/07/15 04:36:15;;;;;;;12.85;2.33;;;19.40;99.90;;;;;;1923175;73;21062;-76
2021/07/15 04:38:43;;;;;;;10.50;2.08;;;19.50;99.90;;;;;;1926772;71;21179;-76
2021/07/15 04:41:14;;;;;;;8.63;2.12;;;19.50;99.90;;;;;;1924775;73;21166;-76
2021/07/15 04:43:43;;;;;;;15.72;2.80;;;19.60;99.90;;;;;;1923419;73;21041;-77
2021/07/15 04:46:12;;;;;;;12.03;2.15;;;19.60;99.90;;;;;;1914146;73;21159;-76
2021/07/15 04:48:41;;;;;;;18.90;2.58;;;19.60;99.90;;;;;;1924980;73;21012;-76
2021/07/15 04:51:14;;;;;;;14.55;2.77;;;19.60;99.90;;;;;;1916829;73;21098;-76
2021/07/15 04:53:40;;;;;;;12.63;2.50;;;19.60;99.90;;;;;;1908150;73;21015;-77
2021/07/15 04:56:08;;;;;;;15.15;2.50;;;19.60;99.90;;;;;;1927659;73;21221;-77
2021/07/15 04:58:36;;;;;;;10.28;2.52;;;19.70;99.90;;;;;;1915127;73;21594;-76
2021/07/15 05:01:04;;;;;;;18.85;2.50;;;19.80;99.90;;;;;;1925647;73;21669;-76
2021/07/15 05:03:34;;;;;;;9.35;2.30;;;19.80;99.90;;;;;;1922772;73;21081;-76
2021/07/15 05:06:04;;;;;;;14.98;2.47;;;19.80;99.90;;;;;;1924228;73;21104;-76
2021/07/15 05:08:33;;;;;;;10.55;2.58;;;19.80;99.90;;;;;;1957826;73;21081;-76
2021/07/15 05:11:01;;;;;;;12.65;2.50;;;19.90;99.90;;;;;;1931626;73;21156;-76
2021/07/15 05:13:28;;;;;;;17.52;2.42;;;19.80;99.90;;;;;;1904133;73;21089;-76
2021/07/15 05:15:56;;;;;;;17.65;2.62;;;19.80;99.90;;;;;;1923990;73;21206;-77
2021/07/15 05:18:23;;;;;;;13.08;2.92;;;19.80;99.90;;;;;;1922362;73;21079;-76
2021/07/15 05:20:51;;;;;;;14.85;2.47;;;19.70;99.90;;;;;;1921515;73;21035;-75
2021/07/15 05:23:20;;;;;;;19.45;3.45;;;19.70;99.90;;;;;;1913585;73;21089;-75
2021/07/15 05:25:48;;;;;;;11.28;2.60;;;19.70;99.90;;;;;;1912086;73;21070;-75
2021/07/15 05:28:15;;;;;;;18.42;2.83;;;19.70;99.90;;;;;;1928869;73;21389;-76
2021/07/15 05:30:43;;;;;;;9.00;2.72;;;19.80;99.90;;;;;;1935329;73;21113;-76
2021/07/15 05:33:11;;;;;;;11.88;2.42;;;19.70;99.90;;;;;;1937598;73;21094;-76
2021/07/15 05:35:40;;;;;;;15.85;2.98;;;19.70;99.90;;;;;;1924360;73;21080;-76
2021/07/15 05:38:08;;;;;;;16.27;2.58;;;19.70;99.90;;;;;;1890139;74;21230;-76
2021/07/15 05:40:36;;;;;;;14.58;2.77;;;19.80;99.90;;;;;;1916634;73;21239;-76
2021/07/15 05:43:03;;;;;;;15.83;2.77;;;19.80;99.90;;;;;;1938435;73;21161;-78
2021/07/15 05:45:32;;;;;;;20.65;3.08;;;19.90;99.90;;;;;;1898755;74;21547;-77
2021/07/15 05:47:59;;;;;;;15.63;2.55;;;19.90;99.90;;;;;;1920216;73;21054;-76
2021/07/15 05:50:27;;;;;;;13.62;2.80;;;19.90;99.90;;;;;;1926377;73;21062;-76
2021/07/15 05:52:54;;;;;;;19.07;3.15;;;19.90;99.90;;;;;;1925824;73;21873;-76
2021/07/15 05:55:22;;;;;;;18.30;3.35;;;20.00;99.90;;;;;;1928445;73;21599;-75
2021/07/15 05:57:50;;;;;;;15.98;3.40;;;20.10;99.90;;;;;;1956866;73;21661;-75
2021/07/15 06:00:18;;;;;;;17.75;3.30;;;20.20;99.90;;;;;;1921386;73;21270;-77
2021/07/15 06:02:45;;;;;;;14.98;2.83;;;20.30;99.90;;;;;;1915944;73;21625;-78
2021/07/15 06:05:13;;;;;;;17.37;3.40;;;20.30;99.90;;;;;;1915242;73;22678;-77
2021/07/15 06:07:40;;;;;;;19.57;4.00;;;20.10;99.90;;;;;;1920166;74;21276;-76
2021/07/15 06:10:09;;;;;;;15.80;4.00;;;20.30;99.90;;;;;;1920169;73;21206;-75
2021/07/15 06:12:37;;;;;;;23.77;4.70;;;20.40;99.90;;;;;;1914440;73;21089;-76
2021/07/15 06:15:06;;;;;;;23.32;4.20;;;20.30;99.90;;;;;;1907177;74;21030;-76
2021/07/15 06:17:35;;;;;;;23.45;3.70;;;20.40;99.90;;;;;;1911156;73;21047;-76
2021/07/15 06:20:04;;;;;;;32.10;5.05;;;20.30;99.90;;;;;;1899045;73;22235;-76
2021/07/15 06:22:32;;;;;;;18.67;4.42;;;20.30;99.90;;;;;;1923178;73;21097;-76
2021/07/15 06:24:59;;;;;;;23.50;5.35;;;20.20;99.90;;;;;;1921539;74;21491;-72
2021/07/15 06:27:27;;;;;;;23.32;4.92;;;20.30;99.90;;;;;;1933170;73;21515;-78
2021/07/15 06:29:54;;;;;;;19.90;4.55;;;20.40;99.90;;;;;;1942093;73;21512;-73
2021/07/15 06:32:22;;;;;;;33.15;7.05;;;20.40;99.90;;;;;;1953219;73;21936;-80
2021/07/15 06:34:49;;;;;;;27.55;5.70;;;20.50;99.90;;;;;;1932646;73;21479;-75
2021/07/15 06:37:18;;;;;;;28.75;7.15;;;20.60;99.90;;;;;;1928557;73;21066;-76
2021/07/15 06:39:45;;;;;;;27.50;7.22;;;20.50;99.90;;;;;;1924390;73;21132;-83
2021/07/15 06:42:13;;;;;;;21.90;7.65;;;20.60;99.90;;;;;;1916008;73;21297;-82
2021/07/15 06:44:40;;;;;;;29.52;7.37;;;20.60;99.90;;;;;;1930124;73;21090;-76
2021/07/15 06:47:08;;;;;;;24.12;6.65;;;20.50;99.90;;;;;;1912002;73;22547;-76
2021/07/15 06:49:35;;;;;;;34.65;8.58;;;20.50;99.90;;;;;;1920466;70;21225;-74
2021/07/15 06:52:04;;;;;;;34.95;8.53;;;20.50;99.90;;;;;;1956479;72;21121;-74
2021/07/15 06:54:31;;;;;;;25.00;7.87;;;20.60;99.90;;;;;;1951070;72;21066;-74
2021/07/15 06:56:59;;;;;;;33.28;8.65;;;20.50;99.90;;;;;;1949936;73;21322;-75
2021/07/15 06:59:26;;;;;;;37.45;9.70;;;20.60;99.90;;;;;;1943012;73;21133;-75
2021/07/15 07:01:54;;;;;;;25.10;7.60;;;20.80;99.90;;;;;;1942761;73;21144;-75
2021/07/15 07:04:21;;;;;;;26.68;7.53;;;20.80;99.90;;;;;;1932669;73;21176;-75
2021/07/15 07:06:49;;;;;;;32.15;8.25;;;20.90;99.90;;;;;;1927798;73;21167;-75
2021/07/15 07:09:16;;;;;;;29.15;8.73;;;20.90;99.90;;;;;;1932031;73;21054;-77
2021/07/15 07:11:44;;;;;;;41.90;8.93;;;20.90;99.90;;;;;;1935420;73;21101;-77
2021/07/15 07:14:12;;;;;;;26.48;9.25;;;20.90;99.90;;;;;;1933169;73;21122;-77
2021/07/15 07:16:39;;;;;;;34.15;9.55;;;21.00;99.90;;;;;;1927779;73;21094;-76
2021/07/15 07:19:07;;;;;;;32.53;8.03;;;21.20;99.90;;;;;;1929213;73;21603;-77
2021/07/15 07:21:34;;;;;;;26.42;8.60;;;21.30;99.90;;;;;;1927847;73;21262;-77
2021/07/15 07:24:02;;;;;;;23.02;8.08;;;21.30;99.90;;;;;;1928163;73;21067;-75
2021/07/15 07:26:29;;;;;;;28.35;9.30;;;21.30;99.90;;;;;;1939673;73;21118;-78
2021/07/15 07:28:57;;;;;;;31.00;11.12;;;21.40;99.90;;;;;;1932413;73;21152;-77
2021/07/15 07:31:27;;;;;;;35.33;11.90;;;21.20;99.90;;;;;;1930650;73;21196;-78
2021/07/15 07:33:55;;;;;;;37.95;11.22;;;21.20;99.90;;;;;;1947516;73;21749;-77
2021/07/15 07:36:22;;;;;;;32.75;11.78;;;21.30;99.90;;;;;;1927288;73;21110;-81
2021/07/15 07:38:50;;;;;;;42.48;11.68;;;21.30;99.90;;;;;;1890420;74;21151;-79
2021/07/15 07:41:18;;;;;;;42.70;13.10;;;21.30;99.90;;;;;;1928778;73;21097;-78
2021/07/15 07:43:45;;;;;;;38.75;13.70;;;21.40;99.90;;;;;;1897454;75;21067;-78
2021/07/15 07:46:13;;;;;;;39.50;13.38;;;21.50;99.90;;;;;;1923005;73;21673;-78
2021/07/15 07:48:40;;;;;;;35.48;13.53;;;21.50;99.90;;;;;;1894550;74;21123;-76
2021/07/15 07:51:08;;;;;;;35.90;13.32;;;21.50;99.90;;;;;;1932051;73;21141;-75
2021/07/15 07:53:35;;;;;;;27.60;11.28;;;21.50;99.90;;;;;;1933627;73;21118;-76
2021/07/15 07:56:03;;;;;;;31.20;10.93;;;21.60;99.90;;;;;;1929713;73;21086;-75
2021/07/15 07:58:30;;;;;;;30.75;11.78;;;21.70;99.90;;;;;;1924883;73;21118;-78
2021/07/15 08:00:58;;;;;;;24.52;10.70;;;21.80;99.90;;;;;;1926589;73;21082;-75
2021/07/15 08:03:25;;;;;;;32.33;10.82;;;22.00;99.90;;;;;;1911771;73;21091;-76
2021/07/15 08:05:53;;;;;;;32.10;11.18;;;22.00;99.90;;;;;;1926188;73;22470;-74
2021/07/15 08:08:21;;;;;;;28.80;10.93;;;21.90;99.90;;;;;;1921887;73;21607;-77
2021/07/15 08:10:50;;;;;;;27.87;10.70;;;22.00;99.90;;;;;;1920402;73;21086;-76
2021/07/15 08:13:18;;;;;;;23.92;9.88;;;21.80;99.90;;;;;;1917536;73;21095;-75
2021/07/15 08:15:45;;;;;;;26.02;10.70;;;21.80;99.90;;;;;;1915888;73;21090;-75
2021/07/15 08:18:13;;;;;;;23.52;10.08;;;21.80;99.90;;;;;;1914145;73;21764;-75
2021/07/15 08:20:40;;;;;;;17.17;9.18;;;21.80;99.90;;;;;;1915712;73;21085;-76
2021/07/15 08:23:08;;;;;;;18.17;9.05;;;21.90;99.90;;;;;;1917667;73;21129;-75
2021/07/15 08:25:36;;;;;;;13.78;8.03;;;21.80;99.90;;;;;;1923592;73;21022;-77
2021/07/15 08:28:04;;;;;;;19.95;8.40;;;21.80;99.90;;;;;;1924845;73;21170;-77
2021/07/15 08:30:31;;;;;;;29.10;9.33;;;21.90;99.90;;;;;;1916690;73;21031;-78
2021/07/15 08:32:59;;;;;;;23.38;8.38;;;21.90;99.90;;;;;;1919170;73;21161;-76
2021/07/15 08:35:28;;;;;;;22.90;7.67;;;21.90;99.90;;;;;;1917189;73;21081;-77
2021/07/15 08:37:59;;;;;;;22.42;7.97;;;22.00;99.90;;;;;;1916465;73;21123;-77
2021/07/15 08:40:28;;;;;;;21.65;8.05;;;22.00;99.90;;;;;;1929175;72;21125;-77
2021/07/15 08:42:56;;;;;;;18.00;6.53;;;21.90;99.90;;;;;;1921873;73;21231;-76
2021/07/15 08:45:24;;;;;;;19.82;7.37;;;22.00;99.90;;;;;;1918677;73;21145;-77
2021/07/15 08:47:53;;;;;;;18.35;6.40;;;22.10;99.90;;;;;;1918212;73;21043;-77
2021/07/15 08:50:21;;;;;;;20.60;7.42;;;22.10;99.90;;;;;;1914042;73;21101;-77
2021/07/15 08:52:49;;;;;;;16.73;7.53;;;22.20;99.90;;;;;;1909190;73;21065;-76
2021/07/15 08:56:36;;;;;;;18.52;7.47;;;22.20;99.90;;;;;;1914835;73;21628;-78
2021/07/15 08:57:46;;;;;;;18.80;7.35;;;22.10;99.90;;;;;;1908396;73;21066;-77
2021/07/15 09:00:18;;;;;;;17.40;7.40;;;22.20;99.90;;;;;;1914878;73;21389;-77
2021/07/15 09:02:46;;;;;;;15.68;7.00;;;22.20;99.90;;;;;;1916960;73;21067;-70
2021/07/15 09:05:14;;;;;;;16.67;7.58;;;22.30;99.90;;;;;;1909565;73;21093;-72
2021/07/15 09:07:44;;;;;;;16.20;7.10;;;22.40;99.90;;;;;;1911317;73;21094;-72
2021/07/15 09:10:11;;;;;;;22.85;8.25;;;22.50;99.90;;;;;;1917789;73;21154;-72
2021/07/15 09:12:39;;;;;;;13.50;6.83;;;22.50;99.90;;;;;;1917114;73;21091;-73
2021/07/15 09:15:11;;;;;;;17.73;8.53;;;22.50;99.90;;;;;;1918752;73;21481;-73
2021/07/15 09:17:38;;;;;;;13.72;7.80;;;22.60;99.90;;;;;;1904965;73;21190;-73
2021/07/15 09:20:10;;;;;;;16.05;7.53;;;22.60;99.90;;;;;;1911931;73;21355;-73
2021/07/15 09:23:01;;;;;;;15.38;8.00;;;22.60;99.90;;;;;;1916564;73;21097;-73
2021/07/15 09:25:30;;;;;;;14.53;7.30;;;22.60;99.90;;;;;;1909599;73;21238;-71
2021/07/15 09:27:58;;;;;;;14.93;7.55;;;22.60;99.90;;;;;;1916975;73;21083;-73
2021/07/15 09:30:25;;;;;;;12.20;6.97;;;22.60;99.90;;;;;;1905844;73;21163;-72
2021/07/15 09:32:55;;;;;;;14.13;6.10;;;22.60;99.90;;;;;;1916118;73;21093;-73
2021/07/15 09:35:34;;;;;;;16.73;6.12;;;22.60;99.90;;;;;;1921846;73;21172;-72
2021/07/15 09:38:11;;;;;;;14.05;6.47;;;22.70;99.90;;;;;;1918828;73;21156;-73
2021/07/15 09:40:44;;;;;;;14.38;6.00;;;22.70;99.90;;;;;;1919358;73;21066;-73
2021/07/15 09:43:20;;;;;;;16.37;6.75;;;22.80;99.90;;;;;;1920572;73;21576;-74
2021/07/15 09:45:50;;;;;;;13.08;6.53;;;22.80;99.90;;;;;;1918976;73;21768;-74
2021/07/15 09:48:21;;;;;;;16.80;7.37;;;22.80;99.90;;;;;;1914034;73;21177;-73
2021/07/15 09:50:51;;;;;;;17.87;7.30;;;22.80;99.90;;;;;;1918568;73;21130;-72
2021/07/15 09:53:24;;;;;;;15.43;7.67;;;22.90;99.90;;;;;;1909259;73;21098;-73
2021/07/15 09:56:00;;;;;;;15.25;7.58;;;22.90;99.90;;;;;;1919082;73;21207;-72
2021/07/15 09:58:33;;;;;;;21.85;6.90;;;22.80;99.90;;;;;;1925986;73;21174;-75
2021/07/15 10:01:07;;;;;;;13.43;6.12;;;22.80;99.90;;;;;;1923852;73;21090;-72
2021/07/15 10:03:43;;;;;;;19.87;7.62;;;23.00;99.90;;;;;;1925938;73;21079;-72
2021/07/15 10:06:13;;;;;;;15.85;7.45;;;23.10;99.90;;;;;;1927987;73;21108;-72
2021/07/15 10:08:43;;;;;;;12.93;7.12;;;23.30;99.90;;;;;;1933564;73;21133;-72
2021/07/15 10:11:33;;;;;;;17.17;7.58;;;23.50;99.90;;;;;;1923966;73;21098;-73
2021/07/15 10:14:05;;;;;;;19.07;7.72;;;23.60;99.90;;;;;;1925749;73;21106;-72
2021/07/15 10:16:35;;;;;;;18.32;7.72;;;23.70;99.90;;;;;;1922347;73;21109;-74
2021/07/15 10:19:04;;;;;;;16.15;7.40;;;23.70;99.90;;;;;;1926406;73;21196;-78
2021/07/15 10:21:34;;;;;;;14.00;7.85;;;23.70;99.90;;;;;;1926893;73;21157;-78
2021/07/15 10:24:16;;;;;;;13.72;7.03;;;23.60;99.90;;;;;;1924407;73;21016;-78
2021/07/15 10:26:46;;;;;;;14.70;7.28;;;23.80;99.90;;;;;;1920081;73;21046;-78
2021/07/15 10:29:15;;;;;;;21.30;7.92;;;23.90;99.90;;;;;;1920725;73;21134;-79
2021/07/15 10:31:44;;;;;;;17.85;8.03;;;24.00;99.90;;;;;;1928674;73;21649;-80
2021/07/15 10:34:13;;;;;;;12.43;7.05;;;24.00;99.90;;;;;;1940206;73;21091;-79
2021/07/15 10:36:41;;;;;;;15.18;6.83;;;24.00;99.90;;;;;;1946072;73;21079;-78
2021/07/15 10:39:13;;;;;;;17.02;7.50;;;24.00;99.90;;;;;;1944910;73;21216;-79
2021/07/15 10:41:44;;;;;;;;;;;23.90;99.90;;;;;;1957832;73;21164;-79
2021/07/15 10:44:13;;;;;;;15.93;7.70;;;23.80;99.90;;;;;;1945191;73;20130;-81
2021/07/15 10:46:41;;;;;;;24.63;8.38;;;23.70;99.90;;;;;;1928129;73;21340;-80
2021/07/15 10:49:09;;;;;;;17.37;8.08;;;23.70;99.90;;;;;;1927747;73;21095;-78
2021/07/15 10:51:42;;;;;;;17.52;8.65;;;23.70;99.90;;;;;;1925469;73;21183;-78
2021/07/15 10:54:10;;;;;;;17.62;7.90;;;23.60;99.90;;;;;;1929417;73;21129;-76
2021/07/15 10:56:39;;;;;;;17.60;8.20;;;23.60;99.90;;;;;;1944812;73;21051;-80
2021/07/15 10:59:24;;;;;;;23.20;9.38;;;23.60;99.90;;;;;;1910843;73;21075;-75
2021/07/15 11:01:52;;;;;;;20.70;9.88;;;23.80;99.90;;;;;;1927274;73;21179;-78
2021/07/15 11:04:34;;;;;;;18.90;9.45;;;23.90;99.90;;;;;;1918297;73;21085;-77
2021/07/15 11:07:16;;;;;;;19.90;8.88;;;24.00;99.90;;;;;;1939905;73;21127;-75
2021/07/15 11:09:44;;;;;;;16.90;11.33;;;24.00;99.90;;;;;;1924166;73;21697;-76
2021/07/15 11:12:36;;;;;;;21.80;10.68;;;23.90;99.90;;;;;;1925708;73;21114;-75
2021/07/15 11:15:16;;;;;;;23.00;11.47;;;23.90;99.90;;;;;;1889416;74;21093;-76
2021/07/15 11:17:50;;;;;;;22.87;10.50;;;24.00;99.90;;;;;;1921703;73;21087;-76
2021/07/15 11:20:28;;;;;;;27.77;11.97;;;24.20;99.90;;;;;;1921560;73;21116;-76
2021/07/15 11:22:58;;;;;;;21.97;12.25;;;24.50;99.90;;;;;;1892498;75;21096;-76
2021/07/15 11:25:32;;;;;;;21.55;11.18;;;24.60;99.90;;;;;;1924018;73;21094;-78
2021/07/15 11:28:06;;;;;;;21.12;12.93;;;24.70;99.90;;;;;;1914202;73;21145;-76
2021/07/15 11:30:40;;;;;;;23.87;11.78;;;24.80;99.90;;;;;;1884319;75;21543;-77
2021/07/15 11:33:22;;;;;;;19.98;12.25;;;24.80;99.90;;;;;;1923023;73;21497;-75
2021/07/15 11:36:01;;;;;;;27.65;12.55;;;25.00;99.90;;;;;;1922137;73;21143;-77
2021/07/15 11:38:27;;;;;;;22.80;12.20;;;25.00;99.90;;;;;;1911911;73;21665;-76
2021/07/15 11:40:56;;;;;;;24.32;14.10;;;25.00;99.90;;;;;;1888836;76;21070;-73
2021/07/15 11:43:37;;;;;;;19.02;11.53;;;24.80;99.90;;;;;;1924135;73;21082;-74
2021/07/15 11:46:24;;;;;;;16.90;12.05;;;24.70;99.90;;;;;;1924812;73;21508;-75
2021/07/15 11:48:57;;;;;;;20.52;13.32;;;24.70;99.90;;;;;;1909924;73;21246;-73
2021/07/15 11:51:28;;;;;;;;;;;24.80;99.90;;;;;;1924680;73;21600;-74
2021/07/15 11:54:28;;;;;;;21.97;13.68;;;25.00;99.90;;;;;;1920306;73;20227;-74
2021/07/15 11:57:14;;;;;;;25.30;13.68;;;25.00;99.90;;;;;;1921087;73;21114;-73
2021/07/15 11:59:46;;;;;;;23.57;15.72;;;25.10;99.90;;;;;;1885885;74;21089;-73
2021/07/15 12:02:41;;;;;;;24.72;15.30;;;25.30;99.90;;;;;;1923086;73;21565;-74
2021/07/15 12:05:11;;;;;;;23.22;15.32;;;25.30;99.90;;;;;;1916214;73;21114;-73
2021/07/15 12:07:47;;;;;;;31.70;17.30;;;25.30;99.90;;;;;;1884785;75;21101;-74
2021/07/15 12:10:26;;;;;;;25.57;16.80;;;25.50;99.90;;;;;;1924484;73;21119;-74
2021/07/15 12:13:00;;;;;;;25.77;16.57;;;25.50;99.90;;;;;;1918918;73;21126;-74
2021/07/15 12:15:29;;;;;;;22.85;15.65;;;25.50;99.90;;;;;;1920250;73;21153;-74
2021/07/15 12:18:02;;;;;;;21.77;15.72;;;25.50;99.90;;;;;;1919664;73;21175;-74
2021/07/15 12:20:42;;;;;;;25.35;17.98;;;25.60;99.90;;;;;;1914065;73;21583;-74
2021/07/15 12:23:21;;;;;;;30.48;18.12;;;25.60;99.90;;;;;;1887059;75;21186;-74
2021/07/15 12:25:52;;;;;;;29.42;18.32;;;25.60;99.90;;;;;;1904163;73;21175;-73
2021/07/15 12:28:24;;;;;;;;;;;25.50;99.90;;;;;;1921806;73;21208;-73
2021/07/15 12:30:55;;;;;;;30.23;19.10;;;25.70;99.90;;;;;;1916577;73;20176;-75
2021/07/15 12:33:25;;;;;;;29.32;19.37;;;25.70;99.90;;;;;;1925151;73;21220;-77
2021/07/15 12:35:53;;;;;;;22.52;17.42;;;25.60;99.90;;;;;;1886193;75;21105;-78
2021/07/15 12:38:29;;;;;;;32.33;17.10;;;25.60;99.90;;;;;;1886457;74;21247;-72
2021/07/15 12:41:15;;;;;;;28.55;20.17;;;25.70;99.90;;;;;;1884839;75;21105;-72
2021/07/15 12:44:01;;;;;;;21.52;16.37;;;25.70;99.90;;;;;;1887862;75;21845;-71
2021/07/15 12:46:31;;;;;;;23.35;17.12;;;25.70;99.90;;;;;;1918758;73;21099;-71
2021/07/15 12:49:01;;;;;;;25.65;17.27;;;25.60;99.90;;;;;;1908257;73;21148;-76
2021/07/15 12:51:31;;;;;;;24.70;16.60;;;25.60;99.90;;;;;;1821160;77;21713;-76
2021/07/15 12:53:59;;;;;;;31.48;18.90;;;25.70;99.90;;;;;;1803950;77;21223;-76
2021/07/15 12:56:28;;;;;;;24.55;18.12;;;25.80;99.90;;;;;;1856639;75;21692;-76